SVMISVBM

Guest
Details From SVMI - Caracas Simon Bolivar Intl
To SVBM - BARQUISIMETO INTL
Flight Number -
Tags decoded
Created
Modified
Stats Distance 168 nm / 310 km
Max Altitude 0 ft / 0 m
Waypoints 7
Social Downloads 1
Likes 0
Share VATSIM

Download

Looking for another format? Having issues loading an existing format? Contact us
Advertisement - Login to hide

Notes

Requested: SVMI MARES ATONO PBL MUNIN MULCA SVBM

Route

SVMI MARES ATONO PBL MUNIN MULCA SVBM

ID Type Via Altitude Latitude Longitude Leg Dist Tot Dist Heading (true) Name
O SVMI APT - 0 ft / 0 m 10.60312˚ -66.99059˚ - 0 nm - Caracas Simon Bolivar Intl
MARES FIX - 0 ft / 0 m 10.78972˚ -67.21361˚ 17 nm 17 nm 310° / 310° -
ATONO FIX - 0 ft / 0 m 10.99028˚ -67.48361˚ 19 nm 37 nm 307° / 307° -
PBL VOR - 0 ft / 0 m 10.48419˚ -68.07781˚ 46 nm 83 nm 229° / 229° PUERTO CABELLO VOR-DME
MUNIN FIX - 0 ft / 0 m 10.38975˚ -68.69536˚ 36 nm 120 nm 261° / 261° -
MULCA FIX - 0 ft / 0 m 10.32975˚ -69.08536˚ 23 nm 143 nm 261° / 261° -
O SVBM APT - 0 ft / 0 m 10.04235˚ -69.35886˚ 23 nm 167 nm 223° / 223° BARQUISIMETO INTL

Altitude Profile

Advertisement - Login to hide

Weather


0- 5 10 15 20 25 30 35+ Temperature / ° C

Clouds and Precipitation
Forecast for 2017-12-14 18:00 UTC. Updated 2 hours ago

Ground ~20,000 ft ~40,000 ft Winds

SVMI

Details ICAO SVMI (CCS)
Name Caracas Simon Bolivar Intl
Region Venezuela
Timezone America/Caracas (UTC-4.0)
Stats Elevation 235 ft / 72 m (AMSL)
Location 10.603119° -66.990585°
Runways 2
Magnetic Variation 12.288° W

METAR

SVMI 141700Z 05005KT 9999 BKN016 29/23 Q1013

Decode

TAF

Not found

Departure Runways

ID Width Length Bearing (true) Bearing (mag) Surface Threshold Offset Overrun Length
09 145 ft / 44 m 9,825 ft / 2,995 m 75.92° 88.21° Asphalt 0 ft / 0 m 0 ft / 0 m
10 148 ft / 45 m 11,472 ft / 3,497 m 88.14° 100.43° Asphalt 0 ft / 0 m 200 ft / 61 m
27 145 ft / 44 m 9,825 ft / 2,995 m 255.92° 268.21° Asphalt 0 ft / 0 m 0 ft / 0 m
28 148 ft / 45 m 11,472 ft / 3,497 m 268.15° 280.44° Asphalt 0 ft / 0 m 200 ft / 61 m

SVBM

Details ICAO SVBM (BRM)
Name BARQUISIMETO INTL
Region Venezuela
Timezone America/Caracas (UTC-4.0)
Stats Elevation 2,042 ft / 622 m (AMSL)
Location 10.042348° -69.358860°
Runways 1
Magnetic Variation 10.916° W

METAR

SVBM 141705Z 14011KT 9999 BKN016 26/20 Q1016

Decode

TAF

Not found

Destination Runways

ID Width Length Bearing (true) Bearing (mag) Surface Threshold Offset Overrun Length
09 147 ft / 45 m 9,428 ft / 2,874 m 80.91° 91.83° Asphalt 0 ft / 0 m 0 ft / 0 m
27 147 ft / 45 m 9,428 ft / 2,874 m 260.91° 271.83° Asphalt 1,541 ft / 470 m 315 ft / 96 m

Popular Alternatives